Terminal Aerodrome Forecast
Issued by NWS

Home | Current Version | Previous Version | Text Only | Print | Product List | Glossary On
Versions: 1 2 3 4 5 6 7 8 9 10 11 12 13
550
FTUS41 KPBZ 291129
TAFAGC
TAF
KAGC 291129Z 2912/3012 20003KT P6SM BKN250
     FM291600 21004KT P6SM VCTS BKN080CB
     FM300200 18004KT P6SM BKN100
     FM300800 21004KT 5SM BR BKN060=

USA.gov is the U.S. government's official web portal to all federal, state and local government web resources and services.